sensor_id;sensor_type;location;lat;lon;timestamp;temperature;humidity
30473;DHT22;17263;48.160;11.452;2023-08-07T00:01:00;12.80;99.90
30473;DHT22;17263;48.160;11.452;2023-08-07T00:03:26;12.80;99.90
30473;DHT22;17263;48.160;11.452;2023-08-07T00:05:52;12.80;99.90
30473;DHT22;17263;48.160;11.452;2023-08-07T00:08:18;12.80;99.90
30473;DHT22;17263;48.160;11.452;2023-08-07T00:10:44;12.80;99.90
30473;DHT22;17263;48.160;11.452;2023-08-07T00:13:10;12.80;99.90
30473;DHT22;17263;48.160;11.452;2023-08-07T00:15:39;12.70;99.90
30473;DHT22;17263;48.160;11.452;2023-08-07T00:18:05;12.70;99.90
30473;DHT22;17263;48.160;11.452;2023-08-07T00:20:31;12.80;99.90
30473;DHT22;17263;48.160;11.452;2023-08-07T00:22:57;12.80;99.90
30473;DHT22;17263;48.160;11.452;2023-08-07T00:25:23;12.80;99.90
30473;DHT22;17263;48.160;11.452;2023-08-07T00:27:49;12.70;99.90
30473;DHT22;17263;48.160;11.452;2023-08-07T00:30:15;12.60;99.90
30473;DHT22;17263;48.160;11.452;2023-08-07T00:32:41;12.60;99.90
30473;DHT22;17263;48.160;11.452;2023-08-07T00:35:08;12.70;99.90
30473;DHT22;17263;48.160;11.452;2023-08-07T00:37:34;12.70;99.90
30473;DHT22;17263;48.160;11.452;2023-08-07T00:40:00;12.60;99.90
30473;DHT22;17263;48.160;11.452;2023-08-07T00:42:26;12.60;99.90
30473;DHT22;17263;48.160;11.452;2023-08-07T00:44:52;12.60;99.90
30473;DHT22;17263;48.160;11.452;2023-08-07T00:47:18;12.50;99.90
30473;DHT22;17263;48.160;11.452;2023-08-07T00:49:44;12.50;99.90
30473;DHT22;17263;48.160;11.452;2023-08-07T00:52:10;12.40;99.90
30473;DHT22;17263;48.160;11.452;2023-08-07T00:54:37;12.40;99.90
30473;DHT22;17263;48.160;11.452;2023-08-07T00:57:12;12.30;99.90
30473;DHT22;17263;48.160;11.452;2023-08-07T00:59:40;12.20;99.90
30473;DHT22;17263;48.160;11.452;2023-08-07T01:02:07;12.20;99.90
30473;DHT22;17263;48.160;11.452;2023-08-07T01:04:34;12.10;99.90
30473;DHT22;17263;48.160;11.452;2023-08-07T01:07:00;12.10;99.90
30473;DHT22;17263;48.160;11.452;2023-08-07T01:09:26;12.00;99.90
30473;DHT22;17263;48.160;11.452;2023-08-07T01:12:20;12.00;99.90
30473;DHT22;17263;48.160;11.452;2023-08-07T01:15:25;11.90;99.90
30473;DHT22;17263;48.160;11.452;2023-08-07T01:17:55;11.90;99.90
30473;DHT22;17263;48.160;11.452;2023-08-07T01:20:21;11.90;99.90
30473;DHT22;17263;48.160;11.452;2023-08-07T01:22:47;11.80;99.90
30473;DHT22;17263;48.160;11.452;2023-08-07T01:25:13;11.70;99.90
30473;DHT22;17263;48.160;11.452;2023-08-07T01:27:50;11.70;99.90
30473;DHT22;17263;48.160;11.452;2023-08-07T01:30:30;11.60;99.90
30473;DHT22;17263;48.160;11.452;2023-08-07T01:33:08;11.60;99.90
30473;DHT22;17263;48.160;11.452;2023-08-07T01:35:40;11.60;99.90
30473;DHT22;17263;48.160;11.452;2023-08-07T01:38:07;11.60;99.90
30473;DHT22;17263;48.160;11.452;2023-08-07T01:40:34;11.60;99.90
30473;DHT22;17263;48.160;11.452;2023-08-07T01:43:01;11.60;99.90
30473;DHT22;17263;48.160;11.452;2023-08-07T01:45:28;11.50;99.90
30473;DHT22;17263;48.160;11.452;2023-08-07T01:47:55;11.50;99.90
30473;DHT22;17263;48.160;11.452;2023-08-07T01:50:22;11.40;99.90
30473;DHT22;17263;48.160;11.452;2023-08-07T01:52:49;11.40;99.90
30473;DHT22;17263;48.160;11.452;2023-08-07T01:55:16;11.40;99.90
30473;DHT22;17263;48.160;11.452;2023-08-07T01:57:43;11.40;99.90
30473;DHT22;17263;48.160;11.452;2023-08-07T02:00:10;11.50;99.90
30473;DHT22;17263;48.160;11.452;2023-08-07T02:02:37;11.50;99.90
30473;DHT22;17263;48.160;11.452;2023-08-07T02:05:04;11.40;99.90
30473;DHT22;17263;48.160;11.452;2023-08-07T02:07:31;11.40;99.90
30473;DHT22;17263;48.160;11.452;2023-08-07T02:09:57;11.40;99.90
30473;DHT22;17263;48.160;11.452;2023-08-07T02:12:24;11.40;99.90
30473;DHT22;17263;48.160;11.452;2023-08-07T02:14:51;11.40;99.90
30473;DHT22;17263;48.160;11.452;2023-08-07T02:17:17;11.40;99.90
30473;DHT22;17263;48.160;11.452;2023-08-07T02:19:43;11.40;99.90
30473;DHT22;17263;48.160;11.452;2023-08-07T02:22:09;11.30;99.90
30473;DHT22;17263;48.160;11.452;2023-08-07T02:24:35;11.30;99.90
30473;DHT22;17263;48.160;11.452;2023-08-07T02:27:01;11.30;99.90
30473;DHT22;17263;48.160;11.452;2023-08-07T02:29:27;11.30;99.90
30473;DHT22;17263;48.160;11.452;2023-08-07T02:31:53;11.40;99.90
30473;DHT22;17263;48.160;11.452;2023-08-07T02:34:19;11.40;99.90
30473;DHT22;17263;48.160;11.452;2023-08-07T02:36:45;11.40;99.90
30473;DHT22;17263;48.160;11.452;2023-08-07T02:39:14;11.40;99.90
30473;DHT22;17263;48.160;11.452;2023-08-07T02:41:40;11.40;99.90
30473;DHT22;17263;48.160;11.452;2023-08-07T02:44:06;11.40;99.90
30473;DHT22;17263;48.160;11.452;2023-08-07T02:46:32;11.40;99.90
30473;DHT22;17263;48.160;11.452;2023-08-07T02:49:00;11.40;99.90
30473;DHT22;17263;48.160;11.452;2023-08-07T02:51:26;11.40;99.90
30473;DHT22;17263;48.160;11.452;2023-08-07T02:53:52;11.40;99.90
30473;DHT22;17263;48.160;11.452;2023-08-07T02:56:18;11.40;99.90
30473;DHT22;17263;48.160;11.452;2023-08-07T02:58:44;11.40;99.90
30473;DHT22;17263;48.160;11.452;2023-08-07T03:01:10;11.40;99.90
30473;DHT22;17263;48.160;11.452;2023-08-07T03:03:37;11.40;99.90
30473;DHT22;17263;48.160;11.452;2023-08-07T03:06:03;11.50;99.90
30473;DHT22;17263;48.160;11.452;2023-08-07T03:08:29;11.50;99.90
30473;DHT22;17263;48.160;11.452;2023-08-07T03:10:57;11.50;99.90
30473;DHT22;17263;48.160;11.452;2023-08-07T03:13:26;11.50;99.90
30473;DHT22;17263;48.160;11.452;2023-08-07T03:16:00;11.60;99.90
30473;DHT22;17263;48.160;11.452;2023-08-07T03:18:27;11.60;99.90
30473;DHT22;17263;48.160;11.452;2023-08-07T03:20:54;11.50;99.90
30473;DHT22;17263;48.160;11.452;2023-08-07T03:23:21;11.60;99.90
30473;DHT22;17263;48.160;11.452;2023-08-07T03:25:47;11.60;99.90
30473;DHT22;17263;48.160;11.452;2023-08-07T03:28:13;11.60;99.90
30473;DHT22;17263;48.160;11.452;2023-08-07T03:30:39;11.60;99.90
30473;DHT22;17263;48.160;11.452;2023-08-07T03:33:05;11.60;99.90
30473;DHT22;17263;48.160;11.452;2023-08-07T03:35:32;11.60;99.90
30473;DHT22;17263;48.160;11.452;2023-08-07T03:37:58;11.60;99.90
30473;DHT22;17263;48.160;11.452;2023-08-07T03:40:24;11.60;99.90
30473;DHT22;17263;48.160;11.452;2023-08-07T03:42:50;11.60;99.90
30473;DHT22;17263;48.160;11.452;2023-08-07T03:45:16;11.60;99.90
30473;DHT22;17263;48.160;11.452;2023-08-07T03:47:42;11.60;99.90
30473;DHT22;17263;48.160;11.452;2023-08-07T03:50:09;11.60;99.90
30473;DHT22;17263;48.160;11.452;2023-08-07T03:52:35;11.60;99.90
30473;DHT22;17263;48.160;11.452;2023-08-07T03:55:01;11.70;99.90
30473;DHT22;17263;48.160;11.452;2023-08-07T03:57:27;11.70;99.90
30473;DHT22;17263;48.160;11.452;2023-08-07T03:59:53;11.70;99.90
30473;DHT22;17263;48.160;11.452;2023-08-07T04:02:20;11.70;99.90
30473;DHT22;17263;48.160;11.452;2023-08-07T04:04:46;11.70;99.90
30473;DHT22;17263;48.160;11.452;2023-08-07T04:07:12;11.70;99.90
30473;DHT22;17263;48.160;11.452;2023-08-07T04:09:38;11.70;99.90
30473;DHT22;17263;48.160;11.452;2023-08-07T04:12:04;11.70;99.90
30473;DHT22;17263;48.160;11.452;2023-08-07T04:14:30;11.70;99.90
30473;DHT22;17263;48.160;11.452;2023-08-07T04:16:56;11.80;99.90
30473;DHT22;17263;48.160;11.452;2023-08-07T04:19:22;11.80;99.90
30473;DHT22;17263;48.160;11.452;2023-08-07T04:21:48;11.80;99.90
30473;DHT22;17263;48.160;11.452;2023-08-07T04:24:14;11.80;99.90
30473;DHT22;17263;48.160;11.452;2023-08-07T04:26:40;11.80;99.90
30473;DHT22;17263;48.160;11.452;2023-08-07T04:29:06;11.80;99.90
30473;DHT22;17263;48.160;11.452;2023-08-07T04:31:33;11.80;99.90
30473;DHT22;17263;48.160;11.452;2023-08-07T04:33:59;11.80;99.90
30473;DHT22;17263;48.160;11.452;2023-08-07T04:36:25;11.80;99.90
30473;DHT22;17263;48.160;11.452;2023-08-07T04:38:51;11.80;99.90
30473;DHT22;17263;48.160;11.452;2023-08-07T04:41:17;11.80;99.90
30473;DHT22;17263;48.160;11.452;2023-08-07T04:43:43;11.80;99.90
30473;DHT22;17263;48.160;11.452;2023-08-07T04:46:09;11.90;99.90
30473;DHT22;17263;48.160;11.452;2023-08-07T04:48:36;11.90;99.90
30473;DHT22;17263;48.160;11.452;2023-08-07T04:51:02;11.90;99.90
30473;DHT22;17263;48.160;11.452;2023-08-07T04:53:28;11.90;99.90
30473;DHT22;17263;48.160;11.452;2023-08-07T04:55:54;12.00;99.90
30473;DHT22;17263;48.160;11.452;2023-08-07T04:58:20;12.00;99.90
30473;DHT22;17263;48.160;11.452;2023-08-07T05:00:46;12.00;99.90
30473;DHT22;17263;48.160;11.452;2023-08-07T05:03:13;12.00;99.90
30473;DHT22;17263;48.160;11.452;2023-08-07T05:05:41;12.00;99.90
30473;DHT22;17263;48.160;11.452;2023-08-07T05:08:07;12.00;99.90
30473;DHT22;17263;48.160;11.452;2023-08-07T05:10:33;12.10;99.90
30473;DHT22;17263;48.160;11.452;2023-08-07T05:12:59;12.10;99.90
30473;DHT22;17263;48.160;11.452;2023-08-07T05:15:25;12.10;99.90
30473;DHT22;17263;48.160;11.452;2023-08-07T05:17:51;12.10;99.90
30473;DHT22;17263;48.160;11.452;2023-08-07T05:20:17;12.10;99.90
30473;DHT22;17263;48.160;11.452;2023-08-07T05:22:44;12.00;99.90
30473;DHT22;17263;48.160;11.452;2023-08-07T05:25:10;12.10;99.90
30473;DHT22;17263;48.160;11.452;2023-08-07T05:27:45;12.00;99.90
30473;DHT22;17263;48.160;11.452;2023-08-07T05:30:11;12.10;99.90
30473;DHT22;17263;48.160;11.452;2023-08-07T05:32:38;12.10;99.90
30473;DHT22;17263;48.160;11.452;2023-08-07T05:35:05;12.10;99.90
30473;DHT22;17263;48.160;11.452;2023-08-07T05:37:31;12.10;99.90
30473;DHT22;17263;48.160;11.452;2023-08-07T05:39:57;12.10;99.90
30473;DHT22;17263;48.160;11.452;2023-08-07T05:42:23;12.10;99.90
30473;DHT22;17263;48.160;11.452;2023-08-07T05:44:49;12.10;99.90
30473;DHT22;17263;48.160;11.452;2023-08-07T05:47:15;12.10;99.90
30473;DHT22;17263;48.160;11.452;2023-08-07T05:49:41;12.20;99.90
30473;DHT22;17263;48.160;11.452;2023-08-07T05:52:08;12.20;99.90
30473;DHT22;17263;48.160;11.452;2023-08-07T05:54:34;12.20;99.90
30473;DHT22;17263;48.160;11.452;2023-08-07T05:57:01;12.30;99.90
30473;DHT22;17263;48.160;11.452;2023-08-07T05:59:27;12.40;99.90
30473;DHT22;17263;48.160;11.452;2023-08-07T06:01:53;12.40;99.90
30473;DHT22;17263;48.160;11.452;2023-08-07T06:04:21;12.40;99.90
30473;DHT22;17263;48.160;11.452;2023-08-07T06:06:47;12.50;99.90
30473;DHT22;17263;48.160;11.452;2023-08-07T06:09:14;12.40;99.90
30473;DHT22;17263;48.160;11.452;2023-08-07T06:11:43;12.50;99.90
30473;DHT22;17263;48.160;11.452;2023-08-07T06:14:09;12.50;99.90
30473;DHT22;17263;48.160;11.452;2023-08-07T06:16:35;12.40;99.90
30473;DHT22;17263;48.160;11.452;2023-08-07T06:19:01;12.50;99.90
30473;DHT22;17263;48.160;11.452;2023-08-07T06:21:29;12.50;99.90
30473;DHT22;17263;48.160;11.452;2023-08-07T06:23:55;12.50;99.90
30473;DHT22;17263;48.160;11.452;2023-08-07T06:26:21;12.50;99.90
30473;DHT22;17263;48.160;11.452;2023-08-07T06:28:47;12.70;99.90
30473;DHT22;17263;48.160;11.452;2023-08-07T06:31:15;12.70;99.90
30473;DHT22;17263;48.160;11.452;2023-08-07T06:33:41;12.80;99.90
30473;DHT22;17263;48.160;11.452;2023-08-07T06:36:07;12.90;99.90
30473;DHT22;17263;48.160;11.452;2023-08-07T06:38:34;13.00;99.90
30473;DHT22;17263;48.160;11.452;2023-08-07T06:41:01;13.30;99.90
30473;DHT22;17263;48.160;11.452;2023-08-07T06:43:27;14.10;99.90
30473;DHT22;17263;48.160;11.452;2023-08-07T06:45:54;15.10;99.90
30473;DHT22;17263;48.160;11.452;2023-08-07T06:48:21;15.90;99.90
30473;DHT22;17263;48.160;11.452;2023-08-07T06:50:47;16.50;99.90
30473;DHT22;17263;48.160;11.452;2023-08-07T06:53:14;17.10;99.90
30473;DHT22;17263;48.160;11.452;2023-08-07T06:55:41;17.40;99.90
30473;DHT22;17263;48.160;11.452;2023-08-07T06:58:07;17.70;99.90
30473;DHT22;17263;48.160;11.452;2023-08-07T07:00:34;18.00;99.90
30473;DHT22;17263;48.160;11.452;2023-08-07T07:03:01;18.30;99.90
30473;DHT22;17263;48.160;11.452;2023-08-07T07:05:27;18.50;99.90
30473;DHT22;17263;48.160;11.452;2023-08-07T07:07:54;18.70;99.90
30473;DHT22;17263;48.160;11.452;2023-08-07T07:10:20;18.90;99.90
30473;DHT22;17263;48.160;11.452;2023-08-07T07:12:46;19.30;99.90
30473;DHT22;17263;48.160;11.452;2023-08-07T07:15:12;19.70;99.90
30473;DHT22;17263;48.160;11.452;2023-08-07T07:17:39;19.90;99.90
30473;DHT22;17263;48.160;11.452;2023-08-07T07:20:05;20.20;99.90
30473;DHT22;17263;48.160;11.452;2023-08-07T07:22:31;20.20;99.90
30473;DHT22;17263;48.160;11.452;2023-08-07T07:24:58;19.90;99.90
30473;DHT22;17263;48.160;11.452;2023-08-07T07:27:24;19.50;99.90
30473;DHT22;17263;48.160;11.452;2023-08-07T07:29:52;19.50;99.90
30473;DHT22;17263;48.160;11.452;2023-08-07T07:32:18;19.30;99.90
30473;DHT22;17263;48.160;11.452;2023-08-07T07:34:44;19.10;99.90
30473;DHT22;17263;48.160;11.452;2023-08-07T07:37:10;18.60;99.90
30473;DHT22;17263;48.160;11.452;2023-08-07T07:39:36;18.30;99.90
30473;DHT22;17263;48.160;11.452;2023-08-07T07:42:02;17.90;99.90
30473;DHT22;17263;48.160;11.452;2023-08-07T07:44:30;17.60;99.90
30473;DHT22;17263;48.160;11.452;2023-08-07T07:46:57;17.30;99.90
30473;DHT22;17263;48.160;11.452;2023-08-07T07:49:23;17.10;99.90
30473;DHT22;17263;48.160;11.452;2023-08-07T07:51:49;16.80;99.90
30473;DHT22;17263;48.160;11.452;2023-08-07T07:54:15;16.60;99.90
30473;DHT22;17263;48.160;11.452;2023-08-07T07:56:42;16.40;99.90
30473;DHT22;17263;48.160;11.452;2023-08-07T07:59:08;16.30;99.90
30473;DHT22;17263;48.160;11.452;2023-08-07T08:01:34;16.10;99.90
30473;DHT22;17263;48.160;11.452;2023-08-07T08:04:00;16.10;99.90
30473;DHT22;17263;48.160;11.452;2023-08-07T08:06:26;15.90;99.90
30473;DHT22;17263;48.160;11.452;2023-08-07T08:08:52;15.80;99.90
30473;DHT22;17263;48.160;11.452;2023-08-07T08:11:18;15.60;99.90
30473;DHT22;17263;48.160;11.452;2023-08-07T08:13:44;15.50;99.90
30473;DHT22;17263;48.160;11.452;2023-08-07T08:16:10;15.40;99.90
30473;DHT22;17263;48.160;11.452;2023-08-07T08:18:36;15.30;99.90
30473;DHT22;17263;48.160;11.452;2023-08-07T08:21:02;15.20;99.90
30473;DHT22;17263;48.160;11.452;2023-08-07T08:23:28;15.10;99.90
30473;DHT22;17263;48.160;11.452;2023-08-07T08:25:54;14.90;99.90
30473;DHT22;17263;48.160;11.452;2023-08-07T08:28:20;14.90;99.90
30473;DHT22;17263;48.160;11.452;2023-08-07T08:30:48;14.90;99.90
30473;DHT22;17263;48.160;11.452;2023-08-07T08:33:14;14.80;99.90
30473;DHT22;17263;48.160;11.452;2023-08-07T08:35:40;14.80;99.90
30473;DHT22;17263;48.160;11.452;2023-08-07T08:38:06;14.80;99.90
30473;DHT22;17263;48.160;11.452;2023-08-07T08:40:33;14.80;99.90
30473;DHT22;17263;48.160;11.452;2023-08-07T08:43:01;14.90;99.90
30473;DHT22;17263;48.160;11.452;2023-08-07T08:45:27;14.90;99.90
30473;DHT22;17263;48.160;11.452;2023-08-07T08:48:01;14.80;99.90
30473;DHT22;17263;48.160;11.452;2023-08-07T08:50:28;14.80;99.90
30473;DHT22;17263;48.160;11.452;2023-08-07T08:52:56;14.80;99.90
30473;DHT22;17263;48.160;11.452;2023-08-07T08:55:23;14.80;99.90
30473;DHT22;17263;48.160;11.452;2023-08-07T08:57:49;14.80;99.90
30473;DHT22;17263;48.160;11.452;2023-08-07T09:00:19;14.90;99.90
30473;DHT22;17263;48.160;11.452;2023-08-07T09:02:48;15.10;99.90
30473;DHT22;17263;48.160;11.452;2023-08-07T09:05:17;15.20;99.90
30473;DHT22;17263;48.160;11.452;2023-08-07T09:07:44;15.20;99.90
30473;DHT22;17263;48.160;11.452;2023-08-07T09:10:13;15.20;99.90
30473;DHT22;17263;48.160;11.452;2023-08-07T09:12:42;15.10;99.90
30473;DHT22;17263;48.160;11.452;2023-08-07T09:15:09;15.10;99.90
30473;DHT22;17263;48.160;11.452;2023-08-07T09:17:40;15.20;99.90
30473;DHT22;17263;48.160;11.452;2023-08-07T09:20:07;15.10;99.90
30473;DHT22;17263;48.160;11.452;2023-08-07T09:22:41;15.10;99.90
30473;DHT22;17263;48.160;11.452;2023-08-07T09:25:08;15.10;99.90
30473;DHT22;17263;48.160;11.452;2023-08-07T09:27:37;15.10;99.90
30473;DHT22;17263;48.160;11.452;2023-08-07T09:30:05;15.20;99.90
30473;DHT22;17263;48.160;11.452;2023-08-07T09:32:32;15.30;99.90
30473;DHT22;17263;48.160;11.452;2023-08-07T09:34:58;15.30;99.90
30473;DHT22;17263;48.160;11.452;2023-08-07T09:37:24;15.40;99.90
30473;DHT22;17263;48.160;11.452;2023-08-07T09:39:51;15.50;99.90
30473;DHT22;17263;48.160;11.452;2023-08-07T09:42:17;15.70;99.90
30473;DHT22;17263;48.160;11.452;2023-08-07T09:44:43;15.90;99.90
30473;DHT22;17263;48.160;11.452;2023-08-07T09:47:18;16.00;99.90
30473;DHT22;17263;48.160;11.452;2023-08-07T09:49:45;16.10;99.90
30473;DHT22;17263;48.160;11.452;2023-08-07T09:52:14;16.20;99.90
30473;DHT22;17263;48.160;11.452;2023-08-07T09:54:41;16.30;99.90
30473;DHT22;17263;48.160;11.452;2023-08-07T09:57:07;16.60;99.90
30473;DHT22;17263;48.160;11.452;2023-08-07T09:59:34;16.70;99.90
30473;DHT22;17263;48.160;11.452;2023-08-07T10:02:01;16.80;99.90
30473;DHT22;17263;48.160;11.452;2023-08-07T10:04:31;16.90;99.90
30473;DHT22;17263;48.160;11.452;2023-08-07T10:06:57;17.00;99.90
30473;DHT22;17263;48.160;11.452;2023-08-07T10:09:24;17.20;99.90
30473;DHT22;17263;48.160;11.452;2023-08-07T10:11:52;17.30;99.90
30473;DHT22;17263;48.160;11.452;2023-08-07T10:14:19;17.50;99.90
30473;DHT22;17263;48.160;11.452;2023-08-07T10:16:46;17.70;99.90
30473;DHT22;17263;48.160;11.452;2023-08-07T10:19:12;18.00;99.90
30473;DHT22;17263;48.160;11.452;2023-08-07T10:21:39;18.30;99.90
30473;DHT22;17263;48.160;11.452;2023-08-07T10:24:07;18.50;99.90
30473;DHT22;17263;48.160;11.452;2023-08-07T10:26:35;18.70;99.90
30473;DHT22;17263;48.160;11.452;2023-08-07T10:29:09;18.90;99.90
30473;DHT22;17263;48.160;11.452;2023-08-07T10:31:42;19.00;99.90
30473;DHT22;17263;48.160;11.452;2023-08-07T10:34:10;19.20;99.90
30473;DHT22;17263;48.160;11.452;2023-08-07T10:36:37;19.30;99.90
30473;DHT22;17263;48.160;11.452;2023-08-07T10:39:09;19.40;99.90
30473;DHT22;17263;48.160;11.452;2023-08-07T10:41:41;19.30;99.90
30473;DHT22;17263;48.160;11.452;2023-08-07T10:44:21;19.20;99.90
30473;DHT22;17263;48.160;11.452;2023-08-07T10:46:49;19.10;99.90
30473;DHT22;17263;48.160;11.452;2023-08-07T10:52:14;19.10;99.90
30473;DHT22;17263;48.160;11.452;2023-08-07T10:54:49;19.30;99.90
30473;DHT22;17263;48.160;11.452;2023-08-07T10:57:18;19.20;99.90
30473;DHT22;17263;48.160;11.452;2023-08-07T11:00:02;19.20;99.90
30473;DHT22;17263;48.160;11.452;2023-08-07T11:02:31;19.20;99.90
30473;DHT22;17263;48.160;11.452;2023-08-07T11:04:59;19.10;99.90
30473;DHT22;17263;48.160;11.452;2023-08-07T11:07:26;19.10;99.90
30473;DHT22;17263;48.160;11.452;2023-08-07T11:09:55;19.30;99.90
30473;DHT22;17263;48.160;11.452;2023-08-07T11:12:26;19.40;99.90
30473;DHT22;17263;48.160;11.452;2023-08-07T11:14:53;19.50;99.90
30473;DHT22;17263;48.160;11.452;2023-08-07T11:17:25;19.70;99.90
30473;DHT22;17263;48.160;11.452;2023-08-07T11:19:51;19.80;99.90
30473;DHT22;17263;48.160;11.452;2023-08-07T11:22:17;19.70;99.90
30473;DHT22;17263;48.160;11.452;2023-08-07T11:24:45;19.40;99.90
30473;DHT22;17263;48.160;11.452;2023-08-07T11:27:11;19.10;99.90
30473;DHT22;17263;48.160;11.452;2023-08-07T11:29:37;18.70;99.90
30473;DHT22;17263;48.160;11.452;2023-08-07T11:32:04;18.30;99.90
30473;DHT22;17263;48.160;11.452;2023-08-07T11:34:30;18.10;99.90
30473;DHT22;17263;48.160;11.452;2023-08-07T11:36:56;17.80;99.90
30473;DHT22;17263;48.160;11.452;2023-08-07T11:39:23;17.60;99.90
30473;DHT22;17263;48.160;11.452;2023-08-07T11:41:51;17.60;99.90
30473;DHT22;17263;48.160;11.452;2023-08-07T11:44:18;17.50;99.90
30473;DHT22;17263;48.160;11.452;2023-08-07T11:46:44;17.50;99.90
30473;DHT22;17263;48.160;11.452;2023-08-07T11:49:10;17.60;99.90
30473;DHT22;17263;48.160;11.452;2023-08-07T11:51:38;17.70;99.90
30473;DHT22;17263;48.160;11.452;2023-08-07T11:54:04;17.70;99.90
30473;DHT22;17263;48.160;11.452;2023-08-07T11:56:30;17.70;99.90
30473;DHT22;17263;48.160;11.452;2023-08-07T11:58:57;17.80;99.90
30473;DHT22;17263;48.160;11.452;2023-08-07T12:01:25;17.90;99.90
30473;DHT22;17263;48.160;11.452;2023-08-07T12:03:53;18.10;99.90
30473;DHT22;17263;48.160;11.452;2023-08-07T12:06:25;18.40;99.90
30473;DHT22;17263;48.160;11.452;2023-08-07T12:08:55;18.70;99.90
30473;DHT22;17263;48.160;11.452;2023-08-07T12:11:21;18.80;99.90
30473;DHT22;17263;48.160;11.452;2023-08-07T12:13:48;18.90;99.90
30473;DHT22;17263;48.160;11.452;2023-08-07T12:16:15;18.90;99.90
30473;DHT22;17263;48.160;11.452;2023-08-07T12:18:45;18.90;99.90
30473;DHT22;17263;48.160;11.452;2023-08-07T12:21:14;18.90;99.90
30473;DHT22;17263;48.160;11.452;2023-08-07T12:23:41;19.00;99.90
30473;DHT22;17263;48.160;11.452;2023-08-07T12:26:07;19.20;99.90
30473;DHT22;17263;48.160;11.452;2023-08-07T12:28:36;19.20;99.90
30473;DHT22;17263;48.160;11.452;2023-08-07T12:31:03;19.30;99.90
30473;DHT22;17263;48.160;11.452;2023-08-07T12:33:29;19.30;99.90
30473;DHT22;17263;48.160;11.452;2023-08-07T12:35:55;19.30;99.90
30473;DHT22;17263;48.160;11.452;2023-08-07T12:38:22;19.30;99.90
30473;DHT22;17263;48.160;11.452;2023-08-07T12:40:48;19.30;99.90
30473;DHT22;17263;48.160;11.452;2023-08-07T12:43:14;19.20;99.90
30473;DHT22;17263;48.160;11.452;2023-08-07T12:45:40;19.10;99.90
30473;DHT22;17263;48.160;11.452;2023-08-07T12:48:06;19.00;99.90
30473;DHT22;17263;48.160;11.452;2023-08-07T12:50:33;18.90;99.90
30473;DHT22;17263;48.160;11.452;2023-08-07T12:52:59;18.70;99.90
30473;DHT22;17263;48.160;11.452;2023-08-07T12:55:25;18.50;99.90
30473;DHT22;17263;48.160;11.452;2023-08-07T12:57:53;18.40;99.90
30473;DHT22;17263;48.160;11.452;2023-08-07T13:00:19;18.30;99.90
30473;DHT22;17263;48.160;11.452;2023-08-07T13:02:46;18.30;99.90
30473;DHT22;17263;48.160;11.452;2023-08-07T13:05:13;18.30;99.90
30473;DHT22;17263;48.160;11.452;2023-08-07T13:07:40;18.40;99.90
30473;DHT22;17263;48.160;11.452;2023-08-07T13:10:08;18.40;99.90
30473;DHT22;17263;48.160;11.452;2023-08-07T13:12:35;18.50;99.90
30473;DHT22;17263;48.160;11.452;2023-08-07T13:15:06;18.60;99.90
30473;DHT22;17263;48.160;11.452;2023-08-07T13:17:37;18.70;99.90
30473;DHT22;17263;48.160;11.452;2023-08-07T13:20:04;18.80;99.90
30473;DHT22;17263;48.160;11.452;2023-08-07T13:22:37;18.90;99.90
30473;DHT22;17263;48.160;11.452;2023-08-07T13:25:04;18.80;99.90
30473;DHT22;17263;48.160;11.452;2023-08-07T13:27:31;18.70;99.90
30473;DHT22;17263;48.160;11.452;2023-08-07T13:29:57;18.60;99.90
30473;DHT22;17263;48.160;11.452;2023-08-07T13:32:26;18.40;99.90
30473;DHT22;17263;48.160;11.452;2023-08-07T13:34:52;18.20;99.90
30473;DHT22;17263;48.160;11.452;2023-08-07T13:37:18;18.00;99.90
30473;DHT22;17263;48.160;11.452;2023-08-07T13:39:44;17.90;99.90
30473;DHT22;17263;48.160;11.452;2023-08-07T13:42:11;17.90;99.90
30473;DHT22;17263;48.160;11.452;2023-08-07T13:44:37;18.00;99.90
30473;DHT22;17263;48.160;11.452;2023-08-07T13:47:04;18.10;99.90
30473;DHT22;17263;48.160;11.452;2023-08-07T13:49:31;18.30;99.90
30473;DHT22;17263;48.160;11.452;2023-08-07T13:51:57;18.40;99.90
30473;DHT22;17263;48.160;11.452;2023-08-07T13:54:23;18.50;99.90
30473;DHT22;17263;48.160;11.452;2023-08-07T13:56:49;18.50;99.90
30473;DHT22;17263;48.160;11.452;2023-08-07T13:59:16;18.60;99.90
30473;DHT22;17263;48.160;11.452;2023-08-07T14:01:42;18.60;99.90
30473;DHT22;17263;48.160;11.452;2023-08-07T14:04:08;18.60;99.90
30473;DHT22;17263;48.160;11.452;2023-08-07T14:06:34;18.60;99.90
30473;DHT22;17263;48.160;11.452;2023-08-07T14:09:00;18.50;99.90
30473;DHT22;17263;48.160;11.452;2023-08-07T14:11:26;18.50;99.90
30473;DHT22;17263;48.160;11.452;2023-08-07T14:13:57;18.40;99.90
30473;DHT22;17263;48.160;11.452;2023-08-07T14:16:23;18.40;99.90
30473;DHT22;17263;48.160;11.452;2023-08-07T14:18:49;18.40;99.90
30473;DHT22;17263;48.160;11.452;2023-08-07T14:21:15;18.40;99.90
30473;DHT22;17263;48.160;11.452;2023-08-07T14:23:42;18.40;99.90
30473;DHT22;17263;48.160;11.452;2023-08-07T14:26:11;18.30;99.90
30473;DHT22;17263;48.160;11.452;2023-08-07T14:28:37;18.30;99.90
30473;DHT22;17263;48.160;11.452;2023-08-07T14:31:08;18.10;99.70
30473;DHT22;17263;48.160;11.452;2023-08-07T14:33:35;18.10;99.90
30473;DHT22;17263;48.160;11.452;2023-08-07T14:36:01;18.20;99.90
30473;DHT22;17263;48.160;11.452;2023-08-07T14:38:28;18.10;99.90
30473;DHT22;17263;48.160;11.452;2023-08-07T14:40:55;18.00;99.90
30473;DHT22;17263;48.160;11.452;2023-08-07T14:43:21;18.00;99.90
30473;DHT22;17263;48.160;11.452;2023-08-07T14:45:48;17.90;99.90
30473;DHT22;17263;48.160;11.452;2023-08-07T14:48:15;17.80;99.90
30473;DHT22;17263;48.160;11.452;2023-08-07T14:50:41;17.60;99.90
30473;DHT22;17263;48.160;11.452;2023-08-07T14:53:07;17.50;99.90
30473;DHT22;17263;48.160;11.452;2023-08-07T14:55:34;17.50;99.90
30473;DHT22;17263;48.160;11.452;2023-08-07T14:58:00;17.40;99.90
30473;DHT22;17263;48.160;11.452;2023-08-07T15:00:26;17.50;99.90
30473;DHT22;17263;48.160;11.452;2023-08-07T15:02:52;17.50;99.90
30473;DHT22;17263;48.160;11.452;2023-08-07T15:05:18;17.50;99.90
30473;DHT22;17263;48.160;11.452;2023-08-07T15:07:45;17.50;99.90
30473;DHT22;17263;48.160;11.452;2023-08-07T15:10:11;17.60;99.90
30473;DHT22;17263;48.160;11.452;2023-08-07T15:12:37;17.60;99.90
30473;DHT22;17263;48.160;11.452;2023-08-07T15:15:03;17.50;99.90
30473;DHT22;17263;48.160;11.452;2023-08-07T15:17:31;17.50;99.90